Terminal Aerodrome Forecast
Issued by NWS Quad Cities IA IL

Home | Current Version | Previous Version | Text Only | Print | Product List | Glossary On
Versions: 1 2 3 4 5 6 7 8 9 10 11 12 13 14 15 16 17
000
FTUS43 KDVN 262300 RRA
TAFMLI
TAF
KMLI 262341Z 2700/2724 18005KT P6SM BKN035 BKN150
     FM270900 21004KT 6SM -SHRA BR OVC025
     FM271300 24010KT 5SM BR OVC008
     FM271600 27012G19KT P6SM OVC015
     FM271900 28015G24KT P6SM BKN022=

USA.gov is the U.S. government's official web portal to all federal, state and local government web resources and services.